Time;durP1;ratioP1;P1;durP2;ratioP2;P2;SDS_P1;SDS_P2;PMS_P1;PMS_P2;Temp;Humidity;BMP_temperature;BMP_pressure;BME280_temperature;BME280_humidity;BME280_pressure;Samples;Min_cycle;Max_cycle;Signal;HPM_P1;HPM_P2
2023/10/09 00:02:25;;;;;;;2.30;0.80;;;15.40;36.60;;;;;;5116823;28;20904;-59
2023/10/09 00:04:52;;;;;;;2.97;0.70;;;15.30;38.40;;;;;;5116419;28;20427;-59
2023/10/09 00:07:23;;;;;;;2.65;0.80;;;15.40;1.00;;;;;;5117201;28;20435;-58
2023/10/09 00:09:55;;;;;;;3.72;0.80;;;15.40;1.00;;;;;;5116160;28;20429;-59
2023/10/09 00:12:23;;;;;;;2.03;0.73;;;15.40;1.00;;;;;;5116344;28;20777;-58
2023/10/09 00:14:55;;;;;;;2.80;0.90;;;15.30;1.00;;;;;;5115998;28;20477;-58
2023/10/09 00:17:22;;;;;;;4.03;0.70;;;15.30;18.20;;;;;;5115382;28;20493;-59
2023/10/09 00:19:51;;;;;;;2.40;0.70;;;15.20;99.90;;;;;;5115048;28;20428;-58
2023/10/09 00:22:26;;;;;;;5.03;1.00;;;15.20;99.90;;;;;;5116345;28;20519;-58
2023/10/09 00:27:36;;;;;;;3.97;0.80;;;15.30;99.90;;;;;;5116014;28;20411;-58
2023/10/09 00:30:06;;;;;;;7.43;0.80;;;15.30;62.00;;;;;;5116039;28;20415;-58
2023/10/09 00:32:36;;;;;;;4.97;1.00;;;15.30;75.40;;;;;;5115661;28;20712;-58
2023/10/09 00:35:36;;;;;;;4.47;0.70;;;15.30;1.00;;;;;;5115502;28;20844;-58
2023/10/09 00:37:55;;;;;;;2.20;0.80;;;15.30;1.00;;;;;;5116027;28;20424;-59
2023/10/09 00:40:33;;;;;;;3.90;0.80;;;15.30;1.00;;;;;;5116062;28;20507;-58
2023/10/09 00:43:05;;;;;;;2.78;0.70;;;15.30;1.00;;;;;;5116286;28;20712;-59
2023/10/09 00:45:38;;;;;;;4.88;0.88;;;15.30;1.00;;;;;;5115997;28;20447;-58
2023/10/09 00:48:09;;;;;;;4.25;0.90;;;15.30;1.00;;;;;;5115913;28;20469;-58
2023/10/09 00:50:38;;;;;;;3.83;0.80;;;15.30;1.00;;;;;;5114666;28;20416;-59
2023/10/09 00:53:12;;;;;;;4.20;0.80;;;15.30;1.00;;;;;;5113889;28;20514;-58
2023/10/09 00:55:45;;;;;;;4.20;0.80;;;15.30;1.00;;;;;;5113281;28;20518;-58
2023/10/09 00:58:14;;;;;;;3.90;0.80;;;15.30;1.00;;;;;;5113477;28;20424;-58
2023/10/09 01:00:46;;;;;;;3.15;0.80;;;15.30;1.00;;;;;;5114354;28;20431;-58
2023/10/09 01:03:20;;;;;;;2.13;0.70;;;15.20;1.00;;;;;;5114552;28;20483;-58
2023/10/09 01:05:56;;;;;;;3.70;0.70;;;15.20;1.00;;;;;;5114250;28;20440;-59
2023/10/09 01:08:30;;;;;;;3.60;0.70;;;15.20;1.00;;;;;;5114689;28;20520;-59
2023/10/09 01:11:09;;;;;;;2.58;0.70;;;15.20;1.00;;;;;;5115776;28;20420;-60
2023/10/09 01:13:52;;;;;;;4.30;0.80;;;15.30;1.00;;;;;;5115537;28;20465;-58
2023/10/09 01:16:21;;;;;;;4.50;0.70;;;15.30;1.00;;;;;;5114977;28;20420;-59
2023/10/09 01:18:50;;;;;;;5.00;0.80;;;15.20;1.00;;;;;;5114000;28;20432;-59
2023/10/09 01:21:18;;;;;;;2.20;0.70;;;15.20;1.00;;;;;;5115571;28;20416;-59
2023/10/09 01:24:03;;;;;;;2.65;0.68;;;15.30;41.10;;;;;;5115317;28;20415;-59
2023/10/09 01:26:34;;;;;;;4.30;0.80;;;15.30;41.00;;;;;;5115522;28;20511;-59
2023/10/09 01:29:01;;;;;;;2.55;0.80;;;15.30;1.00;;;;;;5117404;27;20474;-60
2023/10/09 01:31:33;;;;;;;2.33;0.70;;;15.30;80.00;;;;;;5119598;28;20477;-59
2023/10/09 01:34:01;;;;;;;3.35;0.77;;;15.30;83.90;;;;;;5119564;28;20797;-59
2023/10/09 01:36:32;;;;;;;3.80;0.70;;;15.30;99.90;;;;;;5119693;28;20416;-59
2023/10/09 01:39:07;;;;;;;2.88;0.80;;;15.30;97.60;;;;;;5119076;28;20911;-58
2023/10/09 01:41:34;;;;;;;4.17;0.70;;;15.30;99.90;;;;;;5119313;28;20832;-60
2023/10/09 01:44:03;;;;;;;4.57;0.80;;;15.30;69.80;;;;;;5119957;28;20420;-60
2023/10/09 01:46:33;;;;;;;2.92;0.80;;;15.40;1.00;;;;;;5119626;28;20435;-58
2023/10/09 01:49:08;;;;;;;3.78;0.70;;;15.40;1.00;;;;;;5118869;28;20420;-59
2023/10/09 01:51:36;;;;;;;5.93;0.70;;;15.40;1.00;;;;;;5119187;28;20435;-59
2023/10/09 01:54:05;;;;;;;5.63;0.90;;;15.50;1.00;;;;;;5119211;28;20420;-59
2023/10/09 01:56:36;;;;;;;2.40;0.70;;;15.50;1.00;;;;;;5118841;28;20840;-59
2023/10/09 01:59:05;;;;;;;3.20;0.80;;;15.50;1.00;;;;;;5119312;28;20424;-59
2023/10/09 02:01:34;;;;;;;3.00;0.80;;;15.50;1.00;;;;;;5119086;28;20428;-59
2023/10/09 02:04:08;;;;;;;3.67;0.77;;;15.40;1.00;;;;;;5119261;28;20462;-59
2023/10/09 02:06:37;;;;;;;6.10;0.80;;;15.40;1.00;;;;;;5118551;27;20420;-59
2023/10/09 02:09:06;;;;;;;2.55;0.70;;;15.50;1.00;;;;;;5118593;28;20419;-58
2023/10/09 02:11:41;;;;;;;7.05;0.80;;;15.50;1.00;;;;;;5118576;28;20907;-59
2023/10/09 02:14:19;;;;;;;2.60;0.63;;;15.50;1.00;;;;;;5119343;28;20420;-59
2023/10/09 02:17:02;;;;;;;1.65;0.70;;;15.40;1.00;;;;;;5119067;28;20430;-58
2023/10/09 02:19:33;;;;;;;5.45;0.80;;;15.50;1.00;;;;;;5118865;28;20438;-58
2023/10/09 02:22:02;;;;;;;3.20;0.70;;;15.50;1.00;;;;;;5118651;28;20521;-58
2023/10/09 02:27:53;;;;;;;5.72;0.90;;;15.50;1.00;;;;;;5075084;28;20512;-58
2023/10/09 02:30:26;;;;;;;5.60;0.80;;;15.60;1.00;;;;;;5115785;28;20431;-58
2023/10/09 02:33:06;;;;;;;3.50;0.80;;;15.60;1.00;;;;;;5118539;28;20823;-58
2023/10/09 02:35:37;;;;;;;5.43;0.90;;;15.60;1.00;;;;;;5118001;28;20419;-58
2023/10/09 02:38:09;;;;;;;3.70;0.80;;;15.60;99.90;;;;;;5116697;28;20432;-58
2023/10/09 02:40:53;;;;;;;6.30;0.80;;;15.60;1.00;;;;;;5117252;28;20434;-58
2023/10/09 02:43:27;;;;;;;4.55;0.73;;;15.60;99.90;;;;;;5118422;28;20428;-58
2023/10/09 02:45:54;;;;;;;6.43;0.95;;;15.60;99.90;;;;;;5118445;28;20770;-58
2023/10/09 02:48:25;;;;;;;3.00;0.70;;;15.50;99.90;;;;;;5117766;28;20465;-58
2023/10/09 02:50:52;;;;;;;7.20;0.80;;;15.60;1.00;;;;;;5117791;28;20943;-58
2023/10/09 02:53:19;;;;;;;2.00;0.60;;;15.60;99.90;;;;;;5118392;28;20858;-58
2023/10/09 02:56:11;;;;;;;3.88;0.70;;;15.60;1.00;;;;;;5117817;28;20773;-58
2023/10/09 02:58:39;;;;;;;2.15;0.70;;;15.60;1.00;;;;;;5117431;28;20522;-58
2023/10/09 03:01:13;;;;;;;2.80;0.80;;;15.70;1.00;;;;;;5116225;28;20866;-58
2023/10/09 03:03:45;;;;;;;2.25;0.65;;;15.70;99.90;;;;;;5117209;28;20475;-58
2023/10/09 03:06:12;;;;;;;3.28;0.70;;;15.70;1.00;;;;;;5117127;28;20791;-58
2023/10/09 03:08:40;;;;;;;5.17;0.70;;;15.70;1.00;;;;;;5117228;28;20415;-58
2023/10/09 03:11:13;;;;;;;4.20;0.80;;;15.70;1.00;;;;;;5116521;28;20420;-58
2023/10/09 03:13:44;;;;;;;3.60;0.80;;;15.60;1.00;;;;;;5118028;28;20461;-58
2023/10/09 03:16:19;;;;;;;2.85;0.70;;;15.50;1.00;;;;;;5117823;28;21045;-58
2023/10/09 03:18:47;;;;;;;6.82;0.80;;;15.60;1.00;;;;;;5117345;28;20872;-58
2023/10/09 03:21:16;;;;;;;2.78;0.90;;;15.60;1.00;;;;;;5117690;28;20899;-59
2023/10/09 03:23:44;;;;;;;4.85;0.80;;;15.60;1.00;;;;;;5117582;28;20463;-59
2023/10/09 03:26:13;;;;;;;4.60;0.90;;;15.60;1.00;;;;;;5117354;28;20465;-59
2023/10/09 03:28:43;;;;;;;3.05;0.73;;;15.60;1.00;;;;;;5117611;28;20420;-59
2023/10/09 03:31:10;;;;;;;5.05;0.90;;;15.70;1.00;;;;;;5117001;28;20464;-59
2023/10/09 03:33:38;;;;;;;5.40;0.70;;;15.70;1.00;;;;;;5116854;28;20419;-59
2023/10/09 03:36:09;;;;;;;3.03;0.70;;;15.70;1.00;;;;;;5117396;28;20425;-59
2023/10/09 03:38:36;;;;;;;4.40;0.70;;;15.70;99.90;;;;;;5117001;28;20819;-59
2023/10/09 03:41:06;;;;;;;4.60;0.80;;;15.70;99.90;;;;;;5117210;28;20519;-59
2023/10/09 03:43:40;;;;;;;2.95;1.00;;;15.70;99.90;;;;;;5116460;28;20503;-59
2023/10/09 03:46:14;;;;;;;4.45;0.80;;;15.70;99.90;;;;;;5116829;28;20712;-59
2023/10/09 03:48:45;;;;;;;3.53;0.70;;;15.50;99.90;;;;;;5116746;28;20443;-59
2023/10/09 03:51:15;;;;;;;2.95;0.70;;;15.50;99.90;;;;;;5116133;28;20420;-58
2023/10/09 03:53:42;;;;;;;4.78;0.80;;;15.50;99.90;;;;;;5115017;28;20842;-58
2023/10/09 03:56:12;;;;;;;2.10;0.70;;;15.60;99.90;;;;;;5115659;28;20423;-59
2023/10/09 03:58:44;;;;;;;3.83;0.75;;;15.70;99.90;;;;;;5115875;28;20536;-59
2023/10/09 04:01:17;;;;;;;2.55;0.70;;;15.80;99.90;;;;;;5116168;28;20424;-59
2023/10/09 04:03:45;;;;;;;1.85;0.60;;;15.80;99.90;;;;;;5116051;28;20435;-59
2023/10/09 04:06:12;;;;;;;3.20;0.80;;;15.80;99.90;;;;;;5116262;28;20473;-59
2023/10/09 04:08:47;;;;;;;2.53;0.70;;;15.70;99.90;;;;;;5116258;28;20764;-59
2023/10/09 04:11:17;;;;;;;3.22;0.70;;;15.60;99.90;;;;;;5115917;28;20427;-60
2023/10/09 04:13:47;;;;;;;2.85;0.80;;;15.60;99.90;;;;;;5116265;28;20718;-58
2023/10/09 04:16:35;;;;;;;3.22;0.80;;;15.60;99.90;;;;;;5116127;28;20788;-58
2023/10/09 04:19:11;;;;;;;2.70;0.70;;;15.60;99.90;;;;;;5116636;28;20489;-58
2023/10/09 04:21:37;;;;;;;2.60;0.70;;;15.60;1.00;;;;;;5115414;28;20715;-60
2023/10/09 04:24:23;;;;;;;2.33;0.70;;;15.70;1.00;;;;;;5113264;28;20423;-58
2023/10/09 04:26:55;;;;;;;4.97;0.80;;;15.70;99.90;;;;;;5115522;28;20420;-58
2023/10/09 04:29:27;;;;;;;2.42;0.60;;;15.60;1.00;;;;;;5115662;28;20416;-59
2023/10/09 04:31:56;;;;;;;4.72;1.00;;;15.60;1.00;;;;;;5116002;28;20430;-59
2023/10/09 04:34:23;;;;;;;4.43;0.80;;;15.60;1.00;;;;;;5115684;28;20835;-58
2023/10/09 04:36:53;;;;;;;4.63;0.80;;;15.60;1.00;;;;;;5114786;28;20447;-58
2023/10/09 04:39:46;;;;;;;3.50;0.80;;;15.60;1.00;;;;;;5114650;28;20701;-59
2023/10/09 04:42:26;;;;;;;3.70;0.82;;;15.60;1.00;;;;;;5114934;28;20416;-58
2023/10/09 04:47:49;;;;;;;4.07;0.80;;;15.60;1.00;;;;;;5112721;28;20427;-59
2023/10/09 04:53:22;;;;;;;3.22;0.80;;;15.60;1.00;;;;;;5114038;28;20402;-58
2023/10/09 04:55:53;;;;;;;3.63;0.80;;;15.50;1.00;;;;;;5113298;28;20420;-59
2023/10/09 04:58:25;;;;;;;3.35;0.80;;;15.50;1.00;;;;;;5114458;28;20446;-59
2023/10/09 05:01:14;;;;;;;2.70;0.63;;;15.50;1.00;;;;;;5114474;28;20420;-58
2023/10/09 05:03:45;;;;;;;3.75;0.85;;;15.50;28.60;;;;;;5112992;28;20854;-58
2023/10/09 05:06:42;;;;;;;3.28;0.70;;;15.60;1.00;;;;;;5113648;28;20426;-58
2023/10/09 05:09:12;;;;;;;2.83;0.70;;;15.80;1.00;;;;;;5113592;28;20507;-58
2023/10/09 05:11:59;;;;;;;2.50;0.90;;;15.80;99.90;;;;;;5113662;28;20435;-58
2023/10/09 05:14:38;;;;;;;4.45;0.70;;;15.80;99.90;;;;;;5112612;28;20415;-58
2023/10/09 05:17:15;;;;;;;3.65;0.70;;;15.70;1.00;;;;;;5114376;28;20507;-59
2023/10/09 05:19:42;;;;;;;2.30;0.70;;;15.90;1.00;;;;;;5114526;28;20435;-59
2023/10/09 05:22:29;;;;;;;2.78;0.80;;;16.10;99.90;;;;;;5113807;28;20911;-58
2023/10/09 05:24:56;;;;;;;3.30;0.70;;;16.10;99.90;;;;;;5113146;28;20734;-59
2023/10/09 05:27:45;;;;;;;4.47;0.80;;;16.00;99.90;;;;;;5113271;28;20690;-58
2023/10/09 05:30:27;;;;;;;7.38;0.82;;;16.00;99.90;;;;;;5111806;28;20669;-58
2023/10/09 05:32:59;;;;;;;4.40;0.70;;;15.90;99.90;;;;;;5114243;28;20529;-59
2023/10/09 05:35:39;;;;;;;3.33;0.90;;;15.80;99.90;;;;;;5114486;28;20727;-59
2023/10/09 05:38:23;;;;;;;4.50;0.80;;;15.80;1.00;;;;;;5113223;28;20714;-58
2023/10/09 05:40:53;;;;;;;4.28;0.90;;;15.80;1.00;;;;;;5112054;28;20539;-59
2023/10/09 05:46:09;;;;;;;2.00;0.60;;;16.10;99.90;;;;;;5111547;28;20700;-59
2023/10/09 05:48:54;;;;;;;4.47;0.80;;;16.10;99.90;;;;;;5112361;28;20859;-57
2023/10/09 05:51:42;;;;;;;2.80;0.73;;;16.00;99.90;;;;;;5112390;28;20773;-57
2023/10/09 05:54:54;;;;;;;4.65;1.00;;;16.10;99.90;;;;;;5113225;28;20416;-57
2023/10/09 06:08:07;;;;;;;3.55;0.90;;;16.00;99.90;;;;;;5108203;28;20415;-57
2023/10/09 06:10:40;;;;;;;3.70;0.70;;;15.80;99.90;;;;;;5109602;28;20424;-57
2023/10/09 06:13:37;;;;;;;2.60;0.80;;;15.90;99.90;;;;;;5110683;28;20424;-57
2023/10/09 06:18:41;;;;;;;5.07;0.90;;;16.30;99.90;;;;;;5113476;28;20423;-57
2023/10/09 06:21:38;;;;;;;3.30;0.85;;;16.40;92.10;;;;;;5112835;28;20903;-58
2023/10/09 06:26:51;;;;;;;3.65;1.08;;;16.40;61.20;;;;;;5114407;28;20431;-56
2023/10/09 06:29:33;;;;;;;2.92;0.93;;;16.50;29.80;;;;;;5115788;28;20432;-57
2023/10/09 06:32:16;;;;;;;2.20;0.70;;;16.60;1.00;;;;;;5112640;28;20485;-57
2023/10/09 06:34:46;;;;;;;5.47;1.00;;;16.60;1.00;;;;;;5111665;28;20859;-57
2023/10/09 06:37:34;;;;;;;4.63;0.90;;;16.60;1.00;;;;;;5110758;28;20777;-62
2023/10/09 06:42:55;;;;;;;3.25;0.95;;;16.40;1.00;;;;;;5057376;28;20483;-57
2023/10/09 06:45:28;;;;;;;5.63;0.85;;;16.50;17.10;;;;;;5111898;28;20436;-57
2023/10/09 06:47:55;;;;;;;3.40;0.88;;;16.40;32.00;;;;;;5113850;28;20424;-57
2023/10/09 06:50:42;;;;;;;2.60;0.90;;;16.50;11.20;;;;;;5097384;28;20499;-57
2023/10/09 06:53:28;;;;;;;3.17;1.00;;;16.40;1.00;;;;;;5108499;28;20538;-56
2023/10/09 06:56:05;;;;;;;3.85;0.80;;;16.40;1.00;;;;;;5112248;28;20879;-57
2023/10/09 06:58:41;;;;;;;3.90;1.10;;;16.30;50.90;;;;;;5111286;28;20690;-58
2023/10/09 07:01:25;;;;;;;4.80;1.10;;;16.40;99.90;;;;;;5112979;28;20731;-57
2023/10/09 07:03:54;;;;;;;4.90;0.93;;;16.60;46.80;;;;;;5113010;28;20432;-59
2023/10/09 07:06:47;;;;;;;5.38;0.80;;;16.70;1.00;;;;;;5114093;28;20431;-58
2023/10/09 07:09:18;;;;;;;2.38;0.93;;;16.70;1.00;;;;;;5113993;28;20424;-57
2023/10/09 07:12:03;;;;;;;3.40;1.10;;;16.70;1.00;;;;;;5108765;28;20424;-57
2023/10/09 07:20:35;;;;;;;4.63;0.90;;;16.90;1.00;;;;;;5043060;28;20426;-57
2023/10/09 07:23:13;;;;;;;4.55;1.00;;;16.70;1.00;;;;;;5090028;28;20428;-57
2023/10/09 07:25:54;;;;;;;4.55;0.90;;;16.70;1.00;;;;;;5111811;28;20438;-57
2023/10/09 07:28:36;;;;;;;3.83;1.00;;;16.80;1.00;;;;;;5107629;28;20436;-57
2023/10/09 07:31:04;;;;;;;9.07;1.08;;;16.90;1.00;;;;;;5114500;28;20435;-57
2023/10/09 07:33:51;;;;;;;9.00;1.10;;;17.00;1.00;;;;;;5111361;27;20440;-57
2023/10/09 07:36:29;;;;;;;8.65;1.40;;;17.00;1.00;;;;;;5113255;28;20416;-57
2023/10/09 07:38:59;;;;;;;7.35;1.30;;;17.00;1.00;;;;;;5109359;28;20503;-58
2023/10/09 07:41:37;;;;;;;4.40;0.90;;;17.20;1.00;;;;;;5111709;27;20447;-59
2023/10/09 07:44:33;;;;;;;3.65;0.90;;;17.20;1.00;;;;;;5110489;28;20443;-59
2023/10/09 07:47:17;;;;;;;4.90;1.00;;;17.30;1.00;;;;;;5114059;28;20775;-60
2023/10/09 07:49:48;;;;;;;5.40;1.00;;;17.30;1.00;;;;;;5112646;28;20430;-59
2023/10/09 07:52:16;;;;;;;5.15;0.90;;;17.50;1.00;;;;;;5110700;28;20858;-58
2023/10/09 07:54:49;;;;;;;4.88;1.02;;;17.50;1.00;;;;;;5107663;28;20491;-58
2023/10/09 07:57:25;;;;;;;3.00;1.00;;;17.50;1.00;;;;;;5106482;28;20499;-59
2023/10/09 08:00:00;;;;;;;6.20;0.93;;;17.60;1.00;;;;;;5111302;28;21052;-57
2023/10/09 08:02:32;;;;;;;7.25;1.00;;;17.70;1.00;;;;;;5107578;28;20431;-57
2023/10/09 08:07:54;;;;;;;8.98;1.10;;;17.80;1.00;;;;;;5112185;28;20415;-58
2023/10/09 08:16:04;;;;;;;5.28;1.00;;;18.30;99.90;;;;;;5130327;27;21029;-59
2023/10/09 08:18:31;;;;;;;5.32;1.20;;;18.50;99.90;;;;;;5121991;27;20424;-59
2023/10/09 08:23:52;;;;;;;4.90;1.20;;;18.40;99.90;;;;;;5130067;27;20714;-59
2023/10/09 08:26:28;;;;;;;6.43;1.30;;;18.30;99.90;;;;;;5129848;27;20526;-61
2023/10/09 08:29:15;;;;;;;5.72;1.30;;;18.40;99.90;;;;;;5129089;27;20759;-59
2023/10/09 08:31:46;;;;;;;4.30;1.00;;;18.40;99.90;;;;;;5127775;27;20430;-60
2023/10/09 08:34:24;;;;;;;3.17;1.00;;;18.50;99.90;;;;;;5130660;27;20419;-60
2023/10/09 08:36:52;;;;;;;6.82;1.40;;;18.50;99.90;;;;;;5123413;27;20464;-59
2023/10/09 08:39:25;;;;;;;3.53;0.70;;;18.60;99.90;;;;;;5129356;27;21072;-58
2023/10/09 08:41:53;;;;;;;3.05;0.80;;;18.70;99.90;;;;;;5130954;27;20424;-59
2023/10/09 08:44:24;;;;;;;4.00;0.90;;;18.90;84.80;;;;;;5128066;27;20432;-59
2023/10/09 08:46:55;;;;;;;2.20;0.50;;;19.10;1.00;;;;;;5124960;27;20423;-59
2023/10/09 08:49:22;;;;;;;2.97;0.60;;;19.30;1.00;;;;;;5126674;27;20439;-59
2023/10/09 08:51:52;;;;;;;4.30;0.60;;;19.40;1.00;;;;;;5126329;27;20878;-60
2023/10/09 08:54:19;;;;;;;4.05;0.70;;;19.50;1.00;;;;;;5128484;27;20463;-59
2023/10/09 08:56:50;;;;;;;4.53;0.70;;;19.60;1.00;;;;;;5126339;27;20424;-60
2023/10/09 08:59:21;;;;;;;2.80;0.70;;;19.70;1.00;;;;;;5126313;27;20638;-59
2023/10/09 09:01:51;;;;;;;2.90;0.53;;;19.70;1.00;;;;;;5128191;27;20989;-58
2023/10/09 09:04:39;;;;;;;4.15;0.70;;;19.70;1.00;;;;;;5130180;27;20418;-60
2023/10/09 09:07:07;;;;;;;4.17;0.80;;;19.80;1.00;;;;;;5125911;27;20434;-58
2023/10/09 09:09:34;;;;;;;2.80;0.65;;;19.80;1.00;;;;;;5129662;27;20419;-61
2023/10/09 09:12:02;;;;;;;2.90;0.50;;;19.90;1.00;;;;;;5127337;27;20442;-59
2023/10/09 09:14:38;;;;;;;2.75;0.60;;;19.90;1.00;;;;;;5124863;27;20529;-58
2023/10/09 09:17:10;;;;;;;5.47;0.70;;;20.00;1.00;;;;;;5125682;27;20432;-58
2023/10/09 09:19:39;;;;;;;3.40;0.70;;;20.10;1.00;;;;;;5119335;27;20457;-58
2023/10/09 09:22:12;;;;;;;1.80;0.52;;;20.30;1.00;;;;;;5127084;27;20777;-58
2023/10/09 09:24:45;;;;;;;5.27;0.60;;;20.40;1.00;;;;;;5125574;27;20431;-59
2023/10/09 09:27:18;;;;;;;3.40;0.70;;;20.50;1.00;;;;;;5114755;28;20436;-59
2023/10/09 09:29:52;;;;;;;4.60;0.70;;;20.60;1.00;;;;;;5113774;28;20434;-59
2023/10/09 09:32:35;;;;;;;3.40;0.70;;;20.80;1.00;;;;;;5114471;28;20907;-59
2023/10/09 09:35:05;;;;;;;5.25;0.60;;;21.00;1.00;;;;;;5113534;28;20476;-59
2023/10/09 09:37:50;;;;;;;1.63;0.60;;;21.00;1.00;;;;;;5113838;28;20593;-58
2023/10/09 09:40:29;;;;;;;2.92;0.70;;;21.00;1.00;;;;;;5100851;28;20429;-59
2023/10/09 09:43:04;;;;;;;3.67;0.60;;;21.20;1.00;;;;;;5108788;28;20447;-57
2023/10/09 09:45:33;;;;;;;3.30;0.70;;;21.40;1.00;;;;;;5107996;28;20701;-58
2023/10/09 09:48:05;;;;;;;4.32;0.75;;;21.40;1.00;;;;;;5109665;27;20461;-58
2023/10/09 09:50:36;;;;;;;5.50;0.95;;;21.50;1.00;;;;;;5098508;28;20914;-63
2023/10/09 09:53:08;;;;;;;3.90;0.70;;;21.60;1.00;;;;;;5105294;28;20440;-58
2023/10/09 09:55:41;;;;;;;3.95;0.98;;;21.70;1.00;;;;;;5112859;28;20522;-59
2023/10/09 09:58:18;;;;;;;2.95;0.80;;;21.80;1.00;;;;;;5102761;28;20437;-59
2023/10/09 10:00:52;;;;;;;4.78;0.70;;;21.80;1.00;;;;;;5101793;27;20500;-59
2023/10/09 10:03:23;;;;;;;3.97;0.82;;;22.00;1.00;;;;;;5111008;28;20562;-59
2023/10/09 10:05:52;;;;;;;5.20;0.90;;;21.90;1.00;;;;;;5110302;28;20447;-60
2023/10/09 10:08:21;;;;;;;3.40;0.90;;;21.80;1.00;;;;;;5112176;28;20467;-60
2023/10/09 10:10:50;;;;;;;5.10;0.90;;;21.80;1.00;;;;;;5109020;28;20831;-59
2023/10/09 10:13:27;;;;;;;4.68;1.00;;;21.80;1.00;;;;;;5105457;28;20432;-60
2023/10/09 10:16:20;;;;;;;5.35;0.73;;;21.80;1.00;;;;;;5109279;28;21034;-59
2023/10/09 10:18:59;;;;;;;6.43;1.00;;;21.80;1.00;;;;;;5113562;28;20880;-63
2023/10/09 10:24:57;;;;;;;3.50;0.80;;;22.00;1.00;;;;;;5105308;27;20428;-61
2023/10/09 10:27:31;;;;;;;5.28;0.90;;;22.20;1.00;;;;;;5109896;28;20424;-61
2023/10/09 10:30:36;;;;;;;3.60;0.85;;;22.40;1.00;;;;;;5108125;28;20449;-59
2023/10/09 10:33:12;;;;;;;3.60;1.10;;;22.40;1.00;;;;;;5104535;28;20434;-59
2023/10/09 10:35:52;;;;;;;7.07;1.10;;;22.50;1.00;;;;;;5105773;28;20428;-58
2023/10/09 10:38:36;;;;;;;4.15;0.70;;;22.60;1.00;;;;;;5113427;28;20907;-58
2023/10/09 10:41:17;;;;;;;4.50;0.80;;;22.70;1.00;;;;;;5105184;28;20436;-58
2023/10/09 10:44:33;;;;;;;4.50;0.90;;;22.70;1.00;;;;;;5103135;28;20868;-59
2023/10/09 10:46:51;;;;;;;3.90;0.90;;;22.80;1.00;;;;;;5103071;28;20460;-60
2023/10/09 10:49:21;;;;;;;2.80;0.80;;;22.60;1.00;;;;;;5113558;28;20424;-59
2023/10/09 10:52:00;;;;;;;2.63;0.80;;;22.60;1.00;;;;;;5113043;28;20479;-59
2023/10/09 10:57:53;;;;;;;4.95;0.70;;;22.50;1.00;;;;;;5111321;28;20438;-58
2023/10/09 11:03:13;;;;;;;3.63;0.70;;;22.50;1.00;;;;;;5113495;28;20490;-59
2023/10/09 11:05:43;;;;;;;3.95;0.57;;;22.60;1.00;;;;;;5108916;28;20479;-59
2023/10/09 11:08:15;;;;;;;4.22;0.70;;;22.60;1.00;;;;;;5112757;28;20423;-58
2023/10/09 11:10:50;;;;;;;2.80;0.80;;;22.70;1.00;;;;;;5107279;28;20605;-59
2023/10/09 11:13:35;;;;;;;4.30;0.60;;;22.80;1.00;;;;;;5103857;28;20467;-59
2023/10/09 11:16:28;;;;;;;3.28;0.70;;;22.90;1.00;;;;;;5102759;28;20429;-59
2023/10/09 11:18:57;;;;;;;3.25;0.70;;;23.00;1.00;;;;;;5110533;28;20495;-59
2023/10/09 11:21:40;;;;;;;1.83;0.50;;;23.20;1.00;;;;;;5105446;28;20444;-59
2023/10/09 11:24:27;;;;;;;2.75;0.60;;;23.40;1.00;;;;;;5107675;28;20443;-59
2023/10/09 11:26:56;;;;;;;3.90;0.60;;;23.50;1.00;;;;;;5097017;28;20424;-58
2023/10/09 11:29:23;;;;;;;3.60;0.70;;;23.60;1.00;;;;;;5100846;28;20434;-58
2023/10/09 11:32:01;;;;;;;5.20;0.60;;;23.60;1.00;;;;;;5090470;28;20429;-60
2023/10/09 11:34:32;;;;;;;1.35;0.50;;;23.60;1.00;;;;;;5111352;28;20432;-58
2023/10/09 11:37:00;;;;;;;2.45;0.75;;;23.60;1.00;;;;;;5109810;28;20427;-58
2023/10/09 11:39:32;;;;;;;1.80;0.70;;;23.40;1.00;;;;;;5097811;27;20487;-60
2023/10/09 11:42:04;;;;;;;2.55;0.55;;;23.20;1.00;;;;;;5110604;28;20420;-60
2023/10/09 11:44:40;;;;;;;2.75;0.70;;;22.90;1.00;;;;;;5100933;28;21033;-59
2023/10/09 11:49:56;;;;;;;1.10;0.60;;;22.80;1.00;;;;;;5105522;28;20416;-61
2023/10/09 11:52:35;;;;;;;2.90;0.70;;;22.80;1.00;;;;;;5110013;28;20478;-61
2023/10/09 11:55:03;;;;;;;2.55;0.70;;;22.70;1.00;;;;;;5109781;28;20432;-58
2023/10/09 11:57:31;;;;;;;1.80;0.70;;;22.60;1.00;;;;;;5109002;28;20464;-59
2023/10/09 11:59:59;;;;;;;1.58;0.70;;;22.60;1.00;;;;;;5102239;28;20424;-59
2023/10/09 12:02:26;;;;;;;4.72;0.85;;;22.60;1.00;;;;;;5099098;28;20994;-58
2023/10/09 12:04:56;;;;;;;3.60;0.70;;;22.60;1.00;;;;;;5102348;28;20437;-58
2023/10/09 12:07:25;;;;;;;1.57;0.80;;;22.60;1.00;;;;;;5109796;28;20459;-62
2023/10/09 12:09:56;;;;;;;3.40;0.90;;;22.60;1.00;;;;;;5109320;28;20435;-58
2023/10/09 12:12:26;;;;;;;6.30;1.17;;;22.60;1.00;;;;;;5108620;28;20530;-58
2023/10/09 12:14:55;;;;;;;3.45;1.20;;;22.70;1.00;;;;;;5111174;28;20461;-57
2023/10/09 12:17:25;;;;;;;5.60;1.10;;;22.80;1.00;;;;;;5112055;28;20416;-58
2023/10/09 12:19:52;;;;;;;2.90;0.80;;;22.90;1.00;;;;;;5111248;28;20444;-57
2023/10/09 12:22:21;;;;;;;1.92;0.70;;;23.00;1.00;;;;;;5113301;28;20493;-57
2023/10/09 12:24:48;;;;;;;2.95;0.82;;;23.10;1.00;;;;;;5110885;28;20855;-58
2023/10/09 12:27:20;;;;;;;3.13;0.80;;;23.10;1.00;;;;;;5106419;28;20792;-57
2023/10/09 12:29:49;;;;;;;2.10;0.80;;;23.20;1.00;;;;;;5109459;28;20420;-58
2023/10/09 12:32:20;;;;;;;2.95;0.90;;;23.20;1.00;;;;;;5090909;28;20429;-57
2023/10/09 12:34:50;;;;;;;2.33;0.80;;;23.40;1.00;;;;;;5091992;28;20449;-56
2023/10/09 12:37:20;;;;;;;1.83;0.70;;;23.50;1.00;;;;;;5091153;28;20417;-58
2023/10/09 12:39:47;;;;;;;2.00;0.70;;;23.70;1.00;;;;;;5110026;28;20870;-57
2023/10/09 12:42:16;;;;;;;1.70;0.90;;;23.90;1.00;;;;;;5109441;28;20426;-57
2023/10/09 12:44:44;;;;;;;3.90;0.70;;;24.10;1.00;;;;;;5108048;28;20530;-58
2023/10/09 12:47:12;;;;;;;1.52;0.52;;;24.10;1.00;;;;;;5111602;28;20538;-58
2023/10/09 12:49:40;;;;;;;2.30;0.77;;;24.10;1.00;;;;;;5110955;28;20788;-56
2023/10/09 12:52:15;;;;;;;1.55;0.70;;;24.10;1.00;;;;;;5112654;28;20843;-54
2023/10/09 12:54:43;;;;;;;1.67;0.60;;;24.20;1.00;;;;;;5110081;28;20797;-56
2023/10/09 12:57:13;;;;;;;2.20;0.80;;;24.20;1.00;;;;;;5112421;28;20506;-55
2023/10/09 12:59:44;;;;;;;2.90;0.70;;;24.20;1.00;;;;;;5102715;28;20727;-59
2023/10/09 13:02:13;;;;;;;1.40;0.70;;;24.20;1.00;;;;;;5115286;28;20424;-57
2023/10/09 13:04:42;;;;;;;4.22;0.70;;;24.10;1.00;;;;;;5112282;28;20518;-57
2023/10/09 13:07:09;;;;;;;2.00;0.68;;;24.00;1.00;;;;;;5114305;28;20850;-57
2023/10/09 13:09:42;;;;;;;4.05;0.77;;;23.90;1.00;;;;;;5114079;28;20419;-58
2023/10/09 13:12:17;;;;;;;1.67;0.60;;;23.90;1.00;;;;;;5114372;28;20436;-57
2023/10/09 13:14:45;;;;;;;1.50;0.60;;;23.90;1.00;;;;;;5113293;28;20440;-57
2023/10/09 13:17:13;;;;;;;2.00;0.60;;;23.90;1.00;;;;;;5115320;28;20432;-58
2023/10/09 13:19:43;;;;;;;3.33;0.80;;;23.90;1.00;;;;;;5114842;28;20551;-58
2023/10/09 13:22:13;;;;;;;1.60;0.75;;;23.90;1.00;;;;;;5112324;28;20432;-58
2023/10/09 13:24:41;;;;;;;2.60;0.80;;;23.90;1.00;;;;;;5113233;28;20436;-57
2023/10/09 13:27:09;;;;;;;43.63;26.75;;;23.80;1.00;;;;;;5111909;28;20440;-58
2023/10/09 13:29:39;;;;;;;5.03;1.10;;;23.90;1.00;;;;;;5111769;28;20539;-58
2023/10/09 13:32:13;;;;;;;2.00;0.70;;;24.00;1.00;;;;;;5111970;28;20705;-58
2023/10/09 13:34:44;;;;;;;3.00;1.10;;;24.10;1.00;;;;;;5098307;28;20425;-58
2023/10/09 13:37:13;;;;;;;3.17;0.90;;;24.10;1.00;;;;;;5112622;28;20424;-55
2023/10/09 13:39:51;;;;;;;2.40;1.00;;;24.20;1.00;;;;;;5113476;28;20436;-56
2023/10/09 13:42:19;;;;;;;3.28;0.88;;;24.20;1.00;;;;;;5115752;28;20519;-54
2023/10/09 13:44:48;;;;;;;2.40;0.80;;;24.30;1.00;;;;;;5116083;28;20432;-55
2023/10/09 13:47:20;;;;;;;2.90;0.80;;;24.30;1.00;;;;;;5113970;28;20492;-53
2023/10/09 13:49:50;;;;;;;4.70;0.90;;;24.40;1.00;;;;;;5115278;28;20855;-55
2023/10/09 13:52:19;;;;;;;4.00;0.90;;;24.50;1.00;;;;;;5110732;28;20435;-52
2023/10/09 13:54:50;;;;;;;3.40;0.90;;;24.50;1.00;;;;;;5113020;28;20792;-55
2023/10/09 13:57:17;;;;;;;2.90;0.80;;;24.60;1.00;;;;;;5113446;28;20453;-55
2023/10/09 13:59:49;;;;;;;1.70;0.70;;;24.70;1.00;;;;;;5108450;28;20432;-55
2023/10/09 14:02:18;;;;;;;2.20;0.80;;;24.80;1.00;;;;;;5096707;28;20433;-56
2023/10/09 14:04:46;;;;;;;2.67;0.80;;;24.80;1.00;;;;;;5113090;28;20416;-58
2023/10/09 14:07:17;;;;;;;4.50;0.80;;;24.90;1.00;;;;;;5111905;28;20419;-56
2023/10/09 14:09:55;;;;;;;3.53;0.88;;;25.00;1.00;;;;;;5115247;28;20823;-55
2023/10/09 14:12:24;;;;;;;1.58;0.70;;;25.10;1.00;;;;;;5109638;28;20785;-55
2023/10/09 14:14:53;;;;;;;1.33;0.90;;;25.10;1.00;;;;;;5113599;28;20436;-57
2023/10/09 14:17:25;;;;;;;1.90;0.70;;;25.00;1.00;;;;;;5109564;28;20435;-53
2023/10/09 14:19:52;;;;;;;1.80;0.70;;;25.00;1.00;;;;;;5106567;28;20440;-59
2023/10/09 14:22:24;;;;;;;2.08;0.80;;;25.00;1.00;;;;;;5109318;28;20439;-56
2023/10/09 14:24:55;;;;;;;2.30;0.70;;;25.00;1.00;;;;;;5112014;28;20436;-57
2023/10/09 14:27:25;;;;;;;1.40;0.70;;;24.90;1.00;;;;;;5113607;28;20439;-56
2023/10/09 14:29:56;;;;;;;3.28;0.80;;;24.80;1.00;;;;;;5114118;28;20424;-57
2023/10/09 14:32:28;;;;;;;1.40;0.60;;;24.80;1.00;;;;;;5113588;28;20482;-56